sensor_id;sensor_type;location;lat;lon;timestamp;temperature;humidity
18794;DHT22;29610;49.022;12.114;2023-04-06T00:02:05;-1.70;90.80
18794;DHT22;29610;49.022;12.114;2023-04-06T00:04:55;-1.80;90.90
18794;DHT22;29610;49.022;12.114;2023-04-06T00:07:44;-1.80;91.00
18794;DHT22;29610;49.022;12.114;2023-04-06T00:10:33;-1.90;91.10
18794;DHT22;29610;49.022;12.114;2023-04-06T00:13:22;-1.90;91.20
18794;DHT22;29610;49.022;12.114;2023-04-06T00:16:11;-1.90;91.30
18794;DHT22;29610;49.022;12.114;2023-04-06T00:19:01;-1.90;91.20
18794;DHT22;29610;49.022;12.114;2023-04-06T00:21:51;-2.00;91.30
18794;DHT22;29610;49.022;12.114;2023-04-06T00:24:40;-2.00;91.50
18794;DHT22;29610;49.022;12.114;2023-04-06T00:27:29;-2.10;91.50
18794;DHT22;29610;49.022;12.114;2023-04-06T00:30:18;-2.10;91.80
18794;DHT22;29610;49.022;12.114;2023-04-06T00:33:08;-2.20;91.90
18794;DHT22;29610;49.022;12.114;2023-04-06T00:35:57;-2.20;92.10
18794;DHT22;29610;49.022;12.114;2023-04-06T00:38:48;-2.20;92.30
18794;DHT22;29610;49.022;12.114;2023-04-06T00:41:37;-2.20;92.50
18794;DHT22;29610;49.022;12.114;2023-04-06T00:44:31;-2.30;92.50
18794;DHT22;29610;49.022;12.114;2023-04-06T00:47:20;-2.30;92.50
18794;DHT22;29610;49.022;12.114;2023-04-06T00:50:09;-2.30;92.60
18794;DHT22;29610;49.022;12.114;2023-04-06T00:52:59;-2.30;92.70
18794;DHT22;29610;49.022;12.114;2023-04-06T00:55:50;-2.40;92.80
18794;DHT22;29610;49.022;12.114;2023-04-06T00:58:42;-2.40;93.00
18794;DHT22;29610;49.022;12.114;2023-04-06T01:01:31;-2.40;93.20
18794;DHT22;29610;49.022;12.114;2023-04-06T01:04:28;-2.40;93.30
18794;DHT22;29610;49.022;12.114;2023-04-06T01:07:17;-2.40;93.20
18794;DHT22;29610;49.022;12.114;2023-04-06T01:10:24;-2.50;93.20
18794;DHT22;29610;49.022;12.114;2023-04-06T01:13:37;-2.60;93.40
18794;DHT22;29610;49.022;12.114;2023-04-06T01:16:32;-2.60;93.60
18794;DHT22;29610;49.022;12.114;2023-04-06T01:19:28;-2.70;93.70
18794;DHT22;29610;49.022;12.114;2023-04-06T01:22:20;-2.70;93.90
18794;DHT22;29610;49.022;12.114;2023-04-06T01:25:18;-2.80;93.90
18794;DHT22;29610;49.022;12.114;2023-04-06T01:28:27;-2.90;93.90
18794;DHT22;29610;49.022;12.114;2023-04-06T01:31:33;-3.00;93.80
18794;DHT22;29610;49.022;12.114;2023-04-06T01:34:22;-3.10;94.00
18794;DHT22;29610;49.022;12.114;2023-04-06T01:37:13;-3.20;94.10
18794;DHT22;29610;49.022;12.114;2023-04-06T01:40:04;-3.10;94.40
18794;DHT22;29610;49.022;12.114;2023-04-06T01:43:04;-3.10;94.50
18794;DHT22;29610;49.022;12.114;2023-04-06T01:46:02;-3.00;94.70
18794;DHT22;29610;49.022;12.114;2023-04-06T01:48:55;-3.00;94.70
18794;DHT22;29610;49.022;12.114;2023-04-06T01:51:52;-3.00;94.80
18794;DHT22;29610;49.022;12.114;2023-04-06T01:54:42;-2.90;95.00
18794;DHT22;29610;49.022;12.114;2023-04-06T01:57:38;-2.90;94.90
18794;DHT22;29610;49.022;12.114;2023-04-06T02:00:35;-2.90;94.90
18794;DHT22;29610;49.022;12.114;2023-04-06T02:03:24;-2.80;95.00
18794;DHT22;29610;49.022;12.114;2023-04-06T02:06:23;-2.70;94.90
18794;DHT22;29610;49.022;12.114;2023-04-06T02:09:12;-2.70;94.90
18794;DHT22;29610;49.022;12.114;2023-04-06T02:12:02;-2.70;94.80
18794;DHT22;29610;49.022;12.114;2023-04-06T02:14:55;-2.70;94.80
18794;DHT22;29610;49.022;12.114;2023-04-06T02:17:44;-2.70;94.60
18794;DHT22;29610;49.022;12.114;2023-04-06T02:20:33;-2.70;94.70
18794;DHT22;29610;49.022;12.114;2023-04-06T02:23:22;-2.70;94.80
18794;DHT22;29610;49.022;12.114;2023-04-06T02:26:11;-2.70;94.70
18794;DHT22;29610;49.022;12.114;2023-04-06T02:29:01;-2.70;94.80
18794;DHT22;29610;49.022;12.114;2023-04-06T02:31:51;-2.70;94.80
18794;DHT22;29610;49.022;12.114;2023-04-06T02:34:41;-2.70;94.80
18794;DHT22;29610;49.022;12.114;2023-04-06T02:37:30;-2.70;94.80
18794;DHT22;29610;49.022;12.114;2023-04-06T02:40:19;-2.70;94.90
18794;DHT22;29610;49.022;12.114;2023-04-06T02:43:09;-2.70;94.90
18794;DHT22;29610;49.022;12.114;2023-04-06T02:45:58;-2.60;94.80
18794;DHT22;29610;49.022;12.114;2023-04-06T02:48:49;-2.60;94.80
18794;DHT22;29610;49.022;12.114;2023-04-06T02:51:38;-2.60;94.80
18794;DHT22;29610;49.022;12.114;2023-04-06T02:54:38;-2.60;94.90
18794;DHT22;29610;49.022;12.114;2023-04-06T02:57:27;-2.60;94.80
18794;DHT22;29610;49.022;12.114;2023-04-06T03:00:16;-2.60;94.70
18794;DHT22;29610;49.022;12.114;2023-04-06T03:03:06;-2.60;94.70
18794;DHT22;29610;49.022;12.114;2023-04-06T03:05:57;-2.60;94.80
18794;DHT22;29610;49.022;12.114;2023-04-06T03:08:50;-2.60;94.90
18794;DHT22;29610;49.022;12.114;2023-04-06T03:11:40;-2.60;94.90
18794;DHT22;29610;49.022;12.114;2023-04-06T03:14:29;-2.60;95.00
18794;DHT22;29610;49.022;12.114;2023-04-06T03:17:18;-2.60;95.00
18794;DHT22;29610;49.022;12.114;2023-04-06T03:20:08;-2.50;95.00
18794;DHT22;29610;49.022;12.114;2023-04-06T03:22:58;-2.60;95.00
18794;DHT22;29610;49.022;12.114;2023-04-06T03:25:52;-2.50;95.10
18794;DHT22;29610;49.022;12.114;2023-04-06T03:28:41;-2.60;95.00
18794;DHT22;29610;49.022;12.114;2023-04-06T03:31:30;-2.60;95.10
18794;DHT22;29610;49.022;12.114;2023-04-06T03:34:40;-2.60;95.10
18794;DHT22;29610;49.022;12.114;2023-04-06T03:37:29;-2.60;95.20
18794;DHT22;29610;49.022;12.114;2023-04-06T03:40:23;-2.60;95.30
18794;DHT22;29610;49.022;12.114;2023-04-06T03:43:12;-2.60;95.30
18794;DHT22;29610;49.022;12.114;2023-04-06T03:46:01;-2.70;95.30
18794;DHT22;29610;49.022;12.114;2023-04-06T03:48:50;-2.80;95.20
18794;DHT22;29610;49.022;12.114;2023-04-06T03:51:41;-2.80;95.30
18794;DHT22;29610;49.022;12.114;2023-04-06T03:54:30;-2.80;95.40
18794;DHT22;29610;49.022;12.114;2023-04-06T03:57:21;-2.80;95.40
18794;DHT22;29610;49.022;12.114;2023-04-06T04:00:11;-2.80;95.40
18794;DHT22;29610;49.022;12.114;2023-04-06T04:03:01;-2.80;95.50
18794;DHT22;29610;49.022;12.114;2023-04-06T04:05:50;-2.80;95.60
18794;DHT22;29610;49.022;12.114;2023-04-06T04:08:43;-2.80;95.70
18794;DHT22;29610;49.022;12.114;2023-04-06T04:11:32;-2.80;95.70
18794;DHT22;29610;49.022;12.114;2023-04-06T04:14:23;-2.80;95.80
18794;DHT22;29610;49.022;12.114;2023-04-06T04:17:12;-2.80;95.80
18794;DHT22;29610;49.022;12.114;2023-04-06T04:20:02;-2.80;95.80
18794;DHT22;29610;49.022;12.114;2023-04-06T04:22:51;-2.80;95.80
18794;DHT22;29610;49.022;12.114;2023-04-06T04:25:40;-2.80;96.00
18794;DHT22;29610;49.022;12.114;2023-04-06T04:28:29;-2.70;95.90
18794;DHT22;29610;49.022;12.114;2023-04-06T04:31:20;-2.70;95.80
18794;DHT22;29610;49.022;12.114;2023-04-06T04:34:14;-2.70;95.80
18794;DHT22;29610;49.022;12.114;2023-04-06T04:37:04;-2.60;95.80
18794;DHT22;29610;49.022;12.114;2023-04-06T04:40:07;-2.60;95.80
18794;DHT22;29610;49.022;12.114;2023-04-06T04:43:23;-2.60;95.70
18794;DHT22;29610;49.022;12.114;2023-04-06T04:46:13;-2.60;95.70
18794;DHT22;29610;49.022;12.114;2023-04-06T04:49:05;-2.60;95.70
18794;DHT22;29610;49.022;12.114;2023-04-06T04:51:54;-2.60;95.70
18794;DHT22;29610;49.022;12.114;2023-04-06T04:54:51;-2.70;95.70
18794;DHT22;29610;49.022;12.114;2023-04-06T04:57:48;-2.60;95.70
18794;DHT22;29610;49.022;12.114;2023-04-06T05:00:42;-2.70;95.70
18794;DHT22;29610;49.022;12.114;2023-04-06T05:03:32;-2.70;95.80
18794;DHT22;29610;49.022;12.114;2023-04-06T05:06:27;-2.70;95.90
18794;DHT22;29610;49.022;12.114;2023-04-06T05:09:18;-2.60;96.00
18794;DHT22;29610;49.022;12.114;2023-04-06T05:12:08;-2.70;96.00
18794;DHT22;29610;49.022;12.114;2023-04-06T05:15:08;-2.70;96.00
18794;DHT22;29610;49.022;12.114;2023-04-06T05:17:58;-2.60;96.00
18794;DHT22;29610;49.022;12.114;2023-04-06T05:20:52;-2.60;96.00
18794;DHT22;29610;49.022;12.114;2023-04-06T05:23:49;-2.60;96.00
18794;DHT22;29610;49.022;12.114;2023-04-06T05:26:39;-2.50;96.00
18794;DHT22;29610;49.022;12.114;2023-04-06T05:29:37;-2.50;95.90
18794;DHT22;29610;49.022;12.114;2023-04-06T05:32:27;-2.50;96.20
18794;DHT22;29610;49.022;12.114;2023-04-06T05:35:17;-2.40;95.90
18794;DHT22;29610;49.022;12.114;2023-04-06T05:38:10;-2.40;95.80
18794;DHT22;29610;49.022;12.114;2023-04-06T05:41:01;-2.20;95.80
18794;DHT22;29610;49.022;12.114;2023-04-06T05:43:53;-2.20;95.70
18794;DHT22;29610;49.022;12.114;2023-04-06T05:46:44;-2.10;95.60
18794;DHT22;29610;49.022;12.114;2023-04-06T05:49:36;-2.10;95.50
18794;DHT22;29610;49.022;12.114;2023-04-06T05:52:31;-2.00;95.40
18794;DHT22;29610;49.022;12.114;2023-04-06T05:55:20;-1.90;95.30
18794;DHT22;29610;49.022;12.114;2023-04-06T05:58:18;-1.80;95.20
18794;DHT22;29610;49.022;12.114;2023-04-06T06:01:09;-1.60;95.20
18794;DHT22;29610;49.022;12.114;2023-04-06T06:04:02;-1.40;95.10
18794;DHT22;29610;49.022;12.114;2023-04-06T06:06:54;-1.30;94.80
18794;DHT22;29610;49.022;12.114;2023-04-06T06:09:50;-1.00;94.70
18794;DHT22;29610;49.022;12.114;2023-04-06T06:12:44;-1.00;94.60
18794;DHT22;29610;49.022;12.114;2023-04-06T06:15:34;-0.70;94.80
18794;DHT22;29610;49.022;12.114;2023-04-06T06:18:24;-0.50;94.70
18794;DHT22;29610;49.022;12.114;2023-04-06T06:21:14;-0.20;94.60
18794;DHT22;29610;49.022;12.114;2023-04-06T06:24:05;0.10;94.40
18794;DHT22;29610;49.022;12.114;2023-04-06T06:26:55;0.30;94.00
18794;DHT22;29610;49.022;12.114;2023-04-06T06:29:48;0.60;93.60
18794;DHT22;29610;49.022;12.114;2023-04-06T06:32:40;0.90;93.30
18794;DHT22;29610;49.022;12.114;2023-04-06T06:35:29;1.10;93.10
18794;DHT22;29610;49.022;12.114;2023-04-06T06:38:22;1.40;92.30
18794;DHT22;29610;49.022;12.114;2023-04-06T06:41:12;1.60;91.90
18794;DHT22;29610;49.022;12.114;2023-04-06T06:44:01;1.70;91.30
18794;DHT22;29610;49.022;12.114;2023-04-06T06:46:51;1.90;90.90
18794;DHT22;29610;49.022;12.114;2023-04-06T06:49:41;2.10;90.60
18794;DHT22;29610;49.022;12.114;2023-04-06T06:52:30;2.30;90.10
18794;DHT22;29610;49.022;12.114;2023-04-06T06:55:20;2.50;88.70
18794;DHT22;29610;49.022;12.114;2023-04-06T06:58:09;2.60;87.50
18794;DHT22;29610;49.022;12.114;2023-04-06T07:00:59;2.80;87.40
18794;DHT22;29610;49.022;12.114;2023-04-06T07:03:50;3.00;85.80
18794;DHT22;29610;49.022;12.114;2023-04-06T07:06:41;3.20;84.80
18794;DHT22;29610;49.022;12.114;2023-04-06T07:09:30;3.30;84.80
18794;DHT22;29610;49.022;12.114;2023-04-06T07:12:20;3.50;83.70
18794;DHT22;29610;49.022;12.114;2023-04-06T07:15:10;3.60;83.70
18794;DHT22;29610;49.022;12.114;2023-04-06T07:17:59;3.90;83.60
18794;DHT22;29610;49.022;12.114;2023-04-06T07:20:48;4.10;82.40
18794;DHT22;29610;49.022;12.114;2023-04-06T07:23:39;4.30;81.40
18794;DHT22;29610;49.022;12.114;2023-04-06T07:26:28;4.50;81.00
18794;DHT22;29610;49.022;12.114;2023-04-06T07:29:17;4.70;79.50
18794;DHT22;29610;49.022;12.114;2023-04-06T07:32:07;5.00;79.80
18794;DHT22;29610;49.022;12.114;2023-04-06T07:34:57;5.20;79.70
18794;DHT22;29610;49.022;12.114;2023-04-06T07:37:46;5.30;76.50
18794;DHT22;29610;49.022;12.114;2023-04-06T07:40:37;5.40;77.00
18794;DHT22;29610;49.022;12.114;2023-04-06T07:43:26;5.60;75.40
18794;DHT22;29610;49.022;12.114;2023-04-06T07:46:15;5.80;75.50
18794;DHT22;29610;49.022;12.114;2023-04-06T07:49:05;6.00;74.40
18794;DHT22;29610;49.022;12.114;2023-04-06T07:51:56;6.20;73.20
18794;DHT22;29610;49.022;12.114;2023-04-06T07:54:46;6.30;73.50
18794;DHT22;29610;49.022;12.114;2023-04-06T07:57:38;6.40;72.90
18794;DHT22;29610;49.022;12.114;2023-04-06T08:00:27;6.70;72.60
18794;DHT22;29610;49.022;12.114;2023-04-06T08:03:16;6.90;71.30
18794;DHT22;29610;49.022;12.114;2023-04-06T08:06:08;7.10;70.30
18794;DHT22;29610;49.022;12.114;2023-04-06T08:08:57;7.10;70.70
18794;DHT22;29610;49.022;12.114;2023-04-06T08:11:47;7.20;68.90
18794;DHT22;29610;49.022;12.114;2023-04-06T08:14:37;7.40;68.50
18794;DHT22;29610;49.022;12.114;2023-04-06T08:17:26;7.60;67.60
18794;DHT22;29610;49.022;12.114;2023-04-06T08:20:18;7.60;67.80
18794;DHT22;29610;49.022;12.114;2023-04-06T08:23:07;7.70;67.50
18794;DHT22;29610;49.022;12.114;2023-04-06T08:25:56;7.90;68.00
18794;DHT22;29610;49.022;12.114;2023-04-06T08:28:45;8.00;66.80
18794;DHT22;29610;49.022;12.114;2023-04-06T08:31:36;8.10;66.60
18794;DHT22;29610;49.022;12.114;2023-04-06T08:34:25;8.20;66.30
18794;DHT22;29610;49.022;12.114;2023-04-06T08:37:14;8.30;66.20
18794;DHT22;29610;49.022;12.114;2023-04-06T08:40:04;8.50;64.80
18794;DHT22;29610;49.022;12.114;2023-04-06T08:42:55;8.50;66.70
18794;DHT22;29610;49.022;12.114;2023-04-06T08:45:45;8.70;65.00
18794;DHT22;29610;49.022;12.114;2023-04-06T08:48:36;8.80;64.60
18794;DHT22;29610;49.022;12.114;2023-04-06T08:51:27;8.70;63.20
18794;DHT22;29610;49.022;12.114;2023-04-06T08:54:18;8.60;63.60
18794;DHT22;29610;49.022;12.114;2023-04-06T08:57:07;8.80;64.30
18794;DHT22;29610;49.022;12.114;2023-04-06T08:59:58;8.90;63.30
18794;DHT22;29610;49.022;12.114;2023-04-06T09:02:51;9.00;63.90
18794;DHT22;29610;49.022;12.114;2023-04-06T09:05:45;8.90;62.70
18794;DHT22;29610;49.022;12.114;2023-04-06T09:08:37;9.10;63.10
18794;DHT22;29610;49.022;12.114;2023-04-06T09:11:27;9.20;60.50
18794;DHT22;29610;49.022;12.114;2023-04-06T09:14:16;9.20;61.10
18794;DHT22;29610;49.022;12.114;2023-04-06T09:17:23;9.30;59.30
18794;DHT22;29610;49.022;12.114;2023-04-06T09:20:13;9.40;60.20
18794;DHT22;29610;49.022;12.114;2023-04-06T09:23:05;9.50;58.70
18794;DHT22;29610;49.022;12.114;2023-04-06T09:26:09;9.60;60.10
18794;DHT22;29610;49.022;12.114;2023-04-06T09:28:59;9.50;60.30
18794;DHT22;29610;49.022;12.114;2023-04-06T09:31:50;9.80;58.20
18794;DHT22;29610;49.022;12.114;2023-04-06T09:34:39;9.80;56.60
18794;DHT22;29610;49.022;12.114;2023-04-06T09:37:28;9.80;56.70
18794;DHT22;29610;49.022;12.114;2023-04-06T09:40:19;9.90;56.30
18794;DHT22;29610;49.022;12.114;2023-04-06T09:43:09;9.90;57.20
18794;DHT22;29610;49.022;12.114;2023-04-06T09:46:00;9.80;56.80
18794;DHT22;29610;49.022;12.114;2023-04-06T09:48:51;9.90;57.40
18794;DHT22;29610;49.022;12.114;2023-04-06T09:51:45;10.00;55.40
18794;DHT22;29610;49.022;12.114;2023-04-06T09:54:35;10.00;54.60
18794;DHT22;29610;49.022;12.114;2023-04-06T09:57:32;10.10;53.50
18794;DHT22;29610;49.022;12.114;2023-04-06T10:00:26;10.20;52.50
18794;DHT22;29610;49.022;12.114;2023-04-06T10:03:23;10.30;53.60
18794;DHT22;29610;49.022;12.114;2023-04-06T10:06:31;10.20;53.70
18794;DHT22;29610;49.022;12.114;2023-04-06T10:09:25;10.20;54.30
18794;DHT22;29610;49.022;12.114;2023-04-06T10:12:17;10.20;53.50
18794;DHT22;29610;49.022;12.114;2023-04-06T10:15:09;10.60;52.30
18794;DHT22;29610;49.022;12.114;2023-04-06T10:17:59;10.70;52.30
18794;DHT22;29610;49.022;12.114;2023-04-06T10:20:51;10.90;50.70
18794;DHT22;29610;49.022;12.114;2023-04-06T10:23:46;11.50;52.00
18794;DHT22;29610;49.022;12.114;2023-04-06T10:26:37;11.80;49.10
18794;DHT22;29610;49.022;12.114;2023-04-06T10:29:27;12.20;50.40
18794;DHT22;29610;49.022;12.114;2023-04-06T10:32:17;12.40;48.10
18794;DHT22;29610;49.022;12.114;2023-04-06T10:35:08;12.10;49.70
18794;DHT22;29610;49.022;12.114;2023-04-06T10:38:02;12.70;50.20
18794;DHT22;29610;49.022;12.114;2023-04-06T10:40:52;13.00;48.60
18794;DHT22;29610;49.022;12.114;2023-04-06T10:43:55;13.10;46.90
18794;DHT22;29610;49.022;12.114;2023-04-06T10:46:53;13.30;45.00
18794;DHT22;29610;49.022;12.114;2023-04-06T10:49:44;13.40;45.00
18794;DHT22;29610;49.022;12.114;2023-04-06T10:52:34;13.60;45.40
18794;DHT22;29610;49.022;12.114;2023-04-06T10:55:23;13.30;44.10
18794;DHT22;29610;49.022;12.114;2023-04-06T10:58:13;13.50;43.10
18794;DHT22;29610;49.022;12.114;2023-04-06T11:01:03;13.40;46.10
18794;DHT22;29610;49.022;12.114;2023-04-06T11:03:53;13.90;46.10
18794;DHT22;29610;49.022;12.114;2023-04-06T11:06:48;14.30;45.40
18794;DHT22;29610;49.022;12.114;2023-04-06T11:09:39;14.40;44.40
18794;DHT22;29610;49.022;12.114;2023-04-06T11:12:29;14.40;45.70
18794;DHT22;29610;49.022;12.114;2023-04-06T11:15:22;14.90;46.20
18794;DHT22;29610;49.022;12.114;2023-04-06T11:18:11;15.30;41.80
18794;DHT22;29610;49.022;12.114;2023-04-06T11:21:00;14.20;40.40
18794;DHT22;29610;49.022;12.114;2023-04-06T11:23:50;13.10;42.10
18794;DHT22;29610;49.022;12.114;2023-04-06T11:26:41;12.30;45.70
18794;DHT22;29610;49.022;12.114;2023-04-06T11:29:32;12.90;44.40
18794;DHT22;29610;49.022;12.114;2023-04-06T11:32:24;13.50;45.00
18794;DHT22;29610;49.022;12.114;2023-04-06T11:35:20;14.10;47.30
18794;DHT22;29610;49.022;12.114;2023-04-06T11:38:09;14.70;44.30
18794;DHT22;29610;49.022;12.114;2023-04-06T11:41:01;15.70;44.70
18794;DHT22;29610;49.022;12.114;2023-04-06T11:43:50;16.20;43.10
18794;DHT22;29610;49.022;12.114;2023-04-06T11:46:52;16.70;44.50
18794;DHT22;29610;49.022;12.114;2023-04-06T11:49:42;16.60;41.70
18794;DHT22;29610;49.022;12.114;2023-04-06T11:52:33;16.40;41.50
18794;DHT22;29610;49.022;12.114;2023-04-06T11:55:22;15.40;39.10
18794;DHT22;29610;49.022;12.114;2023-04-06T11:58:12;15.30;41.30
18794;DHT22;29610;49.022;12.114;2023-04-06T12:01:05;15.90;42.50
18794;DHT22;29610;49.022;12.114;2023-04-06T12:03:54;16.40;42.30
18794;DHT22;29610;49.022;12.114;2023-04-06T12:06:44;15.70;39.20
18794;DHT22;29610;49.022;12.114;2023-04-06T12:09:33;15.20;43.90
18794;DHT22;29610;49.022;12.114;2023-04-06T12:12:24;14.70;42.50
18794;DHT22;29610;49.022;12.114;2023-04-06T12:15:14;15.30;42.70
18794;DHT22;29610;49.022;12.114;2023-04-06T12:18:04;16.30;41.20
18794;DHT22;29610;49.022;12.114;2023-04-06T12:20:53;16.30;41.10
18794;DHT22;29610;49.022;12.114;2023-04-06T12:23:42;16.80;42.50
18794;DHT22;29610;49.022;12.114;2023-04-06T12:26:31;17.20;41.80
18794;DHT22;29610;49.022;12.114;2023-04-06T12:29:20;17.90;40.00
18794;DHT22;29610;49.022;12.114;2023-04-06T12:32:11;17.60;39.60
18794;DHT22;29610;49.022;12.114;2023-04-06T12:35:00;17.00;40.50
18794;DHT22;29610;49.022;12.114;2023-04-06T12:37:49;17.20;41.50
18794;DHT22;29610;49.022;12.114;2023-04-06T12:40:38;17.00;41.20
18794;DHT22;29610;49.022;12.114;2023-04-06T12:43:28;17.30;40.90
18794;DHT22;29610;49.022;12.114;2023-04-06T12:46:17;17.50;40.30
18794;DHT22;29610;49.022;12.114;2023-04-06T12:49:07;17.70;38.50
18794;DHT22;29610;49.022;12.114;2023-04-06T12:51:57;17.00;39.90
18794;DHT22;29610;49.022;12.114;2023-04-06T12:54:47;16.80;38.70
18794;DHT22;29610;49.022;12.114;2023-04-06T12:57:37;17.30;39.50
18794;DHT22;29610;49.022;12.114;2023-04-06T13:00:27;17.60;38.80
18794;DHT22;29610;49.022;12.114;2023-04-06T13:03:18;17.70;38.60
18794;DHT22;29610;49.022;12.114;2023-04-06T13:06:10;17.50;38.20
18794;DHT22;29610;49.022;12.114;2023-04-06T13:09:00;17.70;40.20
18794;DHT22;29610;49.022;12.114;2023-04-06T13:11:49;18.00;39.10
18794;DHT22;29610;49.022;12.114;2023-04-06T13:14:38;17.90;38.80
18794;DHT22;29610;49.022;12.114;2023-04-06T13:17:28;18.00;37.20
18794;DHT22;29610;49.022;12.114;2023-04-06T13:20:18;17.00;36.40
18794;DHT22;29610;49.022;12.114;2023-04-06T13:23:08;16.90;38.30
18794;DHT22;29610;49.022;12.114;2023-04-06T13:25:59;17.30;40.00
18794;DHT22;29610;49.022;12.114;2023-04-06T13:28:49;17.80;38.40
18794;DHT22;29610;49.022;12.114;2023-04-06T13:31:38;17.80;39.40
18794;DHT22;29610;49.022;12.114;2023-04-06T13:34:27;17.70;38.80
18794;DHT22;29610;49.022;12.114;2023-04-06T13:37:16;17.80;39.20
18794;DHT22;29610;49.022;12.114;2023-04-06T13:40:08;17.30;37.30
18794;DHT22;29610;49.022;12.114;2023-04-06T13:42:58;17.60;39.80
18794;DHT22;29610;49.022;12.114;2023-04-06T13:45:49;17.70;37.90
18794;DHT22;29610;49.022;12.114;2023-04-06T13:48:39;16.70;37.90
18794;DHT22;29610;49.022;12.114;2023-04-06T13:51:28;16.00;39.10
18794;DHT22;29610;49.022;12.114;2023-04-06T13:54:18;16.20;40.20
18794;DHT22;29610;49.022;12.114;2023-04-06T13:57:09;16.50;39.30
18794;DHT22;29610;49.022;12.114;2023-04-06T13:59:58;16.50;37.90
18794;DHT22;29610;49.022;12.114;2023-04-06T14:02:53;15.50;37.30
18794;DHT22;29610;49.022;12.114;2023-04-06T14:05:43;14.70;38.40
18794;DHT22;29610;49.022;12.114;2023-04-06T14:08:32;14.40;38.90
18794;DHT22;29610;49.022;12.114;2023-04-06T14:11:21;14.40;39.90
18794;DHT22;29610;49.022;12.114;2023-04-06T14:14:13;14.40;40.40
18794;DHT22;29610;49.022;12.114;2023-04-06T14:17:02;14.50;43.00
18794;DHT22;29610;49.022;12.114;2023-04-06T14:19:51;14.80;42.50
18794;DHT22;29610;49.022;12.114;2023-04-06T14:22:41;15.20;42.30
18794;DHT22;29610;49.022;12.114;2023-04-06T14:25:30;15.40;41.20
18794;DHT22;29610;49.022;12.114;2023-04-06T14:28:21;15.60;41.00
18794;DHT22;29610;49.022;12.114;2023-04-06T14:31:13;15.20;39.50
18794;DHT22;29610;49.022;12.114;2023-04-06T14:34:04;15.00;41.00
18794;DHT22;29610;49.022;12.114;2023-04-06T14:36:52;15.10;42.10
18794;DHT22;29610;49.022;12.114;2023-04-06T14:39:41;15.10;40.50
18794;DHT22;29610;49.022;12.114;2023-04-06T14:42:30;15.00;42.70
18794;DHT22;29610;49.022;12.114;2023-04-06T14:45:19;15.00;42.30
18794;DHT22;29610;49.022;12.114;2023-04-06T14:48:10;14.80;41.30
18794;DHT22;29610;49.022;12.114;2023-04-06T14:51:00;14.40;40.20
18794;DHT22;29610;49.022;12.114;2023-04-06T14:53:49;13.90;41.90
18794;DHT22;29610;49.022;12.114;2023-04-06T14:56:38;15.10;42.30
18794;DHT22;29610;49.022;12.114;2023-04-06T14:59:28;14.10;43.90
18794;DHT22;29610;49.022;12.114;2023-04-06T15:02:17;13.60;40.20
18794;DHT22;29610;49.022;12.114;2023-04-06T15:05:08;13.10;41.80
18794;DHT22;29610;49.022;12.114;2023-04-06T15:07:58;12.80;41.50
18794;DHT22;29610;49.022;12.114;2023-04-06T15:10:47;12.40;42.20
18794;DHT22;29610;49.022;12.114;2023-04-06T15:13:37;12.40;43.50
18794;DHT22;29610;49.022;12.114;2023-04-06T15:16:27;12.80;43.90
18794;DHT22;29610;49.022;12.114;2023-04-06T15:19:19;12.90;43.00
18794;DHT22;29610;49.022;12.114;2023-04-06T15:22:11;13.00;41.90
18794;DHT22;29610;49.022;12.114;2023-04-06T15:24:59;12.60;41.60
18794;DHT22;29610;49.022;12.114;2023-04-06T15:27:48;12.30;42.60
18794;DHT22;29610;49.022;12.114;2023-04-06T15:30:38;12.00;42.20
18794;DHT22;29610;49.022;12.114;2023-04-06T15:33:27;11.90;42.30
18794;DHT22;29610;49.022;12.114;2023-04-06T15:36:23;11.70;42.80
18794;DHT22;29610;49.022;12.114;2023-04-06T15:39:15;11.80;42.40
18794;DHT22;29610;49.022;12.114;2023-04-06T15:42:04;11.70;42.80
18794;DHT22;29610;49.022;12.114;2023-04-06T15:44:53;11.90;44.70
18794;DHT22;29610;49.022;12.114;2023-04-06T15:47:43;11.90;42.90
18794;DHT22;29610;49.022;12.114;2023-04-06T15:50:33;11.80;42.80
18794;DHT22;29610;49.022;12.114;2023-04-06T15:53:23;11.70;43.30
18794;DHT22;29610;49.022;12.114;2023-04-06T15:56:13;11.80;43.00
18794;DHT22;29610;49.022;12.114;2023-04-06T15:59:02;11.70;42.50
18794;DHT22;29610;49.022;12.114;2023-04-06T16:01:51;11.50;42.10
18794;DHT22;29610;49.022;12.114;2023-04-06T16:04:41;11.30;42.00
18794;DHT22;29610;49.022;12.114;2023-04-06T16:07:30;11.40;43.30
18794;DHT22;29610;49.022;12.114;2023-04-06T16:10:20;11.40;43.20
18794;DHT22;29610;49.022;12.114;2023-04-06T16:13:10;11.30;43.90
18794;DHT22;29610;49.022;12.114;2023-04-06T16:15:59;11.10;44.00
18794;DHT22;29610;49.022;12.114;2023-04-06T16:18:50;11.00;42.70
18794;DHT22;29610;49.022;12.114;2023-04-06T16:21:39;10.70;42.70
18794;DHT22;29610;49.022;12.114;2023-04-06T16:24:28;10.60;41.90
18794;DHT22;29610;49.022;12.114;2023-04-06T16:27:17;10.40;42.30
18794;DHT22;29610;49.022;12.114;2023-04-06T16:30:08;10.20;45.70
18794;DHT22;29610;49.022;12.114;2023-04-06T16:32:58;10.10;43.60
18794;DHT22;29610;49.022;12.114;2023-04-06T16:35:48;10.00;45.00
18794;DHT22;29610;49.022;12.114;2023-04-06T16:38:37;9.90;45.40
18794;DHT22;29610;49.022;12.114;2023-04-06T16:41:27;9.80;46.10
18794;DHT22;29610;49.022;12.114;2023-04-06T16:44:16;9.70;46.60
18794;DHT22;29610;49.022;12.114;2023-04-06T16:47:06;9.60;46.90
18794;DHT22;29610;49.022;12.114;2023-04-06T16:49:55;9.50;46.40
18794;DHT22;29610;49.022;12.114;2023-04-06T16:52:52;9.30;48.30
18794;DHT22;29610;49.022;12.114;2023-04-06T16:55:41;9.30;47.00
18794;DHT22;29610;49.022;12.114;2023-04-06T16:58:32;9.00;49.10
18794;DHT22;29610;49.022;12.114;2023-04-06T17:01:22;8.90;49.90
18794;DHT22;29610;49.022;12.114;2023-04-06T17:04:14;8.80;49.90
18794;DHT22;29610;49.022;12.114;2023-04-06T17:07:03;8.60;50.30
18794;DHT22;29610;49.022;12.114;2023-04-06T17:09:52;8.50;51.30
18794;DHT22;29610;49.022;12.114;2023-04-06T17:12:41;8.40;51.60
18794;DHT22;29610;49.022;12.114;2023-04-06T17:15:32;8.20;52.30
18794;DHT22;29610;49.022;12.114;2023-04-06T17:18:21;8.80;52.80
18794;DHT22;29610;49.022;12.114;2023-04-06T17:21:11;7.70;52.70
18794;DHT22;29610;49.022;12.114;2023-04-06T17:24:03;7.60;52.40
18794;DHT22;29610;49.022;12.114;2023-04-06T17:26:53;7.50;53.70
18794;DHT22;29610;49.022;12.114;2023-04-06T17:29:42;7.20;54.40
18794;DHT22;29610;49.022;12.114;2023-04-06T17:32:32;7.10;55.10
18794;DHT22;29610;49.022;12.114;2023-04-06T17:35:21;6.90;55.60
18794;DHT22;29610;49.022;12.114;2023-04-06T17:38:12;6.90;55.80
18794;DHT22;29610;49.022;12.114;2023-04-06T17:41:01;7.00;55.60
18794;DHT22;29610;49.022;12.114;2023-04-06T17:43:51;6.90;55.50
18794;DHT22;29610;49.022;12.114;2023-04-06T17:46:40;6.50;56.00
18794;DHT22;29610;49.022;12.114;2023-04-06T17:49:29;6.40;56.50